Check out our new BloomSky Weather System.

Active alerts


No alerts


Thunder radar  blitzortung!


Rain radar more information rain snow radar


Visit our other weather sites:

Template documentation
and downloads

And another site



Weather Underground History page Text

Daily Summary for August 28, 2017 Units:  English    Metric   Both
« Previous Day
Next Day »
Daily Weekly Monthly Yearly Custom
  High: Low: Average:
Temperature: 73.8 °F 69.3 °F 71.1 °F
Dew Point: 72.9 °F 69.3 °F 70.9 °F
Humidity: 100 % 95 % 99 %
Wind Speed: 18.0 mph 0.0 mph 5.5 mph
Wind Gust: 24.0 mph - -
Wind:- - WSW
Pressure: 29.73 in 29.62 in -
Precipitation: 3.73 in    
Historical Graphs
 
 
Tabular Data for August 28, 2017
Time Temperature Dew Point Pressure Wind Wind Speed Wind Gust Humidity Rainfall Rate (Hourly)
00:03 72.9 °F 72.9 °F 29.70 in ENE 1.0 mph 9.0 mph 100 % 0.95 in
00:08 72.9 °F 72.9 °F 29.70 in Calm   9.0 mph 100 % 0.86 in
00:13 72.9 °F 72.9 °F 29.70 in North 8.0 mph 9.0 mph 100 % 0.82 in
00:18 72.9 °F 72.9 °F 29.70 in North 3.0 mph 11.0 mph 100 % 0.78 in
00:23 72.9 °F 72.9 °F 29.69 in ENE 8.0 mph 11.0 mph 100 % 0.77 in
00:28 72.7 °F 72.7 °F 29.68 in North 3.0 mph 11.0 mph 100 % 0.77 in
00:33 72.7 °F 72.7 °F 29.68 in NW 3.0 mph 15.0 mph 100 % 0.67 in
00:38 72.3 °F 72.3 °F 29.68 in NNW 4.0 mph 15.0 mph 100 % 0.54 in
00:43 72.0 °F 72.0 °F 29.68 in WSW 4.0 mph 15.0 mph 100 % 0.50 in
00:48 71.8 °F 71.8 °F 29.68 in NW 2.0 mph 13.0 mph 100 % 0.48 in
00:53 71.6 °F 71.6 °F 29.68 in NW 3.0 mph 13.0 mph 100 % 0.47 in
00:58 71.6 °F 71.6 °F 29.68 in NW 1.0 mph 14.0 mph 100 % 0.45 in
01:03 71.6 °F 71.6 °F 29.68 in NNW 2.0 mph 14.0 mph 100 % 0.47 in
01:08 71.4 °F 71.4 °F 29.68 in NNW 1.0 mph 14.0 mph 100 % 0.50 in
01:13 71.4 °F 71.4 °F 29.67 in NW 5.0 mph 17.0 mph 100 % 0.47 in
01:18 71.4 °F 71.4 °F 29.68 in SE 6.0 mph 17.0 mph 100 % 0.43 in
01:23 71.4 °F 71.4 °F 29.68 in NNW 5.0 mph 17.0 mph 100 % 0.40 in
01:28 71.4 °F 71.4 °F 29.68 in NW 3.0 mph 17.0 mph 100 % 0.36 in
01:33 71.4 °F 71.4 °F 29.67 in North 5.0 mph 17.0 mph 100 % 0.32 in
01:38 71.4 °F 71.4 °F 29.67 in East 3.0 mph 16.0 mph 100 % 0.27 in
01:43 71.4 °F 71.4 °F 29.66 in East 5.0 mph 16.0 mph 100 % 0.22 in
01:48 71.6 °F 71.6 °F 29.66 in WNW 4.0 mph 12.0 mph 100 % 0.20 in
01:53 71.6 °F 71.6 °F 29.66 in WSW 2.0 mph 16.0 mph 100 % 0.18 in
01:58 71.8 °F 71.8 °F 29.66 in NW 4.0 mph 16.0 mph 100 % 0.17 in
02:03 71.8 °F 71.8 °F 29.66 in NW 3.0 mph 16.0 mph 100 % 0.12 in
02:08 71.8 °F 71.8 °F 29.65 in NNE 2.0 mph 15.0 mph 100 % 0.08 in
02:13 71.8 °F 71.8 °F 29.65 in NNW 4.0 mph 15.0 mph 100 % 0.06 in
02:14 71.8 °F 71.8 °F 29.65 in ENE 5.0 mph 15.0 mph 100 % 0.06 in
02:19 71.8 °F 71.8 °F 29.65 in ENE 2.0 mph 15.0 mph 100 % 0.06 in
02:24 71.8 °F 71.8 °F 29.65 in ENE 3.0 mph 12.0 mph 100 % 0.05 in
02:29 71.8 °F 71.8 °F 29.65 in NW 4.0 mph 12.0 mph 100 % 0.03 in
02:34 72.0 °F 72.0 °F 29.65 in Calm   13.0 mph 100 % 0.02 in
02:39 72.0 °F 72.0 °F 29.65 in NNE 9.0 mph 13.0 mph 100 % 0.02 in
02:44 72.0 °F 72.0 °F 29.65 in NNW 12.0 mph 13.0 mph 100 % 0.03 in
02:50 72.0 °F 72.0 °F 29.65 in NNW 4.0 mph 16.0 mph 100 % 0.04 in
02:55 72.0 °F 72.0 °F 29.65 in ESE 8.0 mph 18.0 mph 100 % 0.05 in
03:00 72.0 °F 72.0 °F 29.65 in NNW 2.0 mph 18.0 mph 100 % 0.05 in
03:05 72.0 °F 72.0 °F 29.64 in NNW 7.0 mph 18.0 mph 100 % 0.05 in
03:10 72.0 °F 72.0 °F 29.64 in NE 7.0 mph 14.0 mph 100 % 0.05 in
03:15 72.0 °F 72.0 °F 29.65 in NNW 3.0 mph 15.0 mph 100 % 0.05 in
03:20 72.0 °F 72.0 °F 29.64 in West 2.0 mph 15.0 mph 100 % 0.05 in
03:25 72.0 °F 72.0 °F 29.64 in NW 3.0 mph 16.0 mph 100 % 0.05 in
03:30 71.8 °F 71.8 °F 29.64 in NW 4.0 mph 16.0 mph 100 % 0.05 in
03:35 71.8 °F 71.8 °F 29.64 in NNW 7.0 mph 15.0 mph 100 % 0.05 in
03:40 71.8 °F 71.8 °F 29.63 in East 5.0 mph 19.0 mph 100 % 0.04 in
03:45 71.8 °F 71.8 °F 29.63 in West 3.0 mph 19.0 mph 100 % 0.02 in
03:50 71.8 °F 71.8 °F 29.63 in NE 5.0 mph 19.0 mph 100 % 0.01 in
03:55 71.8 °F 71.8 °F 29.63 in WNW 2.0 mph 14.0 mph 100 % 0.01 in
04:00 72.0 °F 72.0 °F 29.63 in North 6.0 mph 15.0 mph 100 % 0.01 in
04:05 71.8 °F 71.8 °F 29.63 in NW 4.0 mph 15.0 mph 100 % 0.01 in
04:10 71.8 °F 71.8 °F 29.63 in NW 4.0 mph 17.0 mph 100 % 0.01 in
04:15 71.8 °F 71.8 °F 29.64 in NNW 2.0 mph 17.0 mph 100 % 0.01 in
04:20 71.6 °F 71.6 °F 29.64 in NW 7.0 mph 17.0 mph 100 % 0.01 in
04:25 71.4 °F 71.4 °F 29.63 in NNW 18.0 mph 21.0 mph 100 % 0.01 in
04:30 71.4 °F 71.4 °F 29.63 in NW 3.0 mph 21.0 mph 100 % 0.01 in
04:35 71.4 °F 71.4 °F 29.63 in North 6.0 mph 21.0 mph 100 % 0.00 in
04:40 71.4 °F 71.4 °F 29.63 in WSW 2.0 mph 18.0 mph 100 % 0.00 in
04:45 71.4 °F 71.4 °F 29.63 in ENE 8.0 mph 22.0 mph 100 % 0.00 in
04:50 71.4 °F 71.4 °F 29.62 in NNE 13.0 mph 22.0 mph 100 % 0.00 in
04:55 71.4 °F 71.4 °F 29.63 in ENE 6.0 mph 22.0 mph 100 % 0.00 in
05:00 71.6 °F 71.6 °F 29.63 in NW 6.0 mph 22.0 mph 100 % 0.00 in
05:05 71.6 °F 71.6 °F 29.62 in NNW 7.0 mph 23.0 mph 100 % 0.00 in
05:10 71.8 °F 71.8 °F 29.63 in ENE 8.0 mph 23.0 mph 100 % 0.00 in
05:15 71.8 °F 71.8 °F 29.63 in NNW 12.0 mph 23.0 mph 100 % 0.00 in
05:20 72.0 °F 72.0 °F 29.63 in ENE 7.0 mph 20.0 mph 100 % 0.00 in
05:25 72.0 °F 72.0 °F 29.63 in NW 4.0 mph 20.0 mph 100 % 0.00 in
05:30 72.0 °F 72.0 °F 29.63 in NW 9.0 mph 18.0 mph 100 % 0.00 in
05:36 72.1 °F 72.1 °F 29.63 in NNW 6.0 mph 17.0 mph 100 % 0.00 in
05:41 72.3 °F 72.3 °F 29.64 in NNW 1.0 mph 17.0 mph 100 % 0.00 in
05:46 72.3 °F 72.0 °F 29.64 in NW 2.0 mph 24.0 mph 99 % 0.00 in
05:51 72.5 °F 72.1 °F 29.63 in NNW 5.0 mph 24.0 mph 99 % 0.00 in
05:56 72.7 °F 72.1 °F 29.64 in NNW 5.0 mph 24.0 mph 98 % 0.00 in
06:01 72.7 °F 72.1 °F 29.63 in North 11.0 mph 22.0 mph 98 % 0.00 in
06:06 72.9 °F 72.3 °F 29.63 in NNW 9.0 mph 22.0 mph 98 % 0.00 in
06:11 72.9 °F 72.0 °F 29.64 in NNW 6.0 mph 22.0 mph 97 % 0.00 in
06:16 72.9 °F 72.0 °F 29.64 in WNW 6.0 mph 19.0 mph 97 % 0.00 in
06:20 73.0 °F 72.1 °F 29.64 in NNW 13.0 mph 19.0 mph 97 % 0.00 in
06:25 73.0 °F 72.1 °F 29.65 in WNW 4.0 mph 19.0 mph 97 % 0.00 in
06:30 73.0 °F 71.8 °F 29.65 in ENE 12.0 mph 16.0 mph 96 % 0.00 in
06:35 73.2 °F 72.0 °F 29.65 in WNW 5.0 mph 18.0 mph 96 % 0.00 in
06:40 73.2 °F 72.0 °F 29.65 in NW 2.0 mph 18.0 mph 96 % 0.00 in
06:45 73.4 °F 72.0 °F 29.65 in West 2.0 mph 18.0 mph 95 % 0.00 in
06:50 73.4 °F 72.0 °F 29.65 in NNW 11.0 mph 18.0 mph 95 % 0.00 in
06:55 73.6 °F 72.1 °F 29.65 in NNE 6.0 mph 14.0 mph 95 % 0.00 in
07:00 73.6 °F 72.1 °F 29.65 in NNE 5.0 mph 18.0 mph 95 % 0.00 in
07:05 73.6 °F 72.1 °F 29.65 in East 4.0 mph 18.0 mph 95 % 0.00 in
07:10 73.8 °F 72.3 °F 29.66 in NNE 6.0 mph 18.0 mph 95 % 0.00 in
07:15 73.8 °F 72.3 °F 29.65 in WNW 7.0 mph 17.0 mph 95 % 0.00 in
07:20 73.8 °F 72.3 °F 29.66 in North 8.0 mph 17.0 mph 95 % 0.00 in
07:25 73.8 °F 72.3 °F 29.66 in NW 3.0 mph 17.0 mph 95 % 0.00 in
07:30 73.8 °F 72.3 °F 29.66 in West 4.0 mph 17.0 mph 95 % 0.00 in
07:31 73.8 °F 72.3 °F 29.66 in NNE 2.0 mph 17.0 mph 95 % 0.00 in
07:36 73.8 °F 72.3 °F 29.66 in NNW 5.0 mph 17.0 mph 95 % 0.00 in
07:41 73.8 °F 72.3 °F 29.66 in East 10.0 mph 17.0 mph 95 % 0.00 in
07:46 73.8 °F 72.3 °F 29.66 in NNW 5.0 mph 19.0 mph 95 % 0.00 in
07:51 73.8 °F 72.3 °F 29.66 in NW 4.0 mph 19.0 mph 95 % 0.01 in
07:56 73.6 °F 72.3 °F 29.67 in NW 5.0 mph 19.0 mph 96 % 0.01 in
08:01 73.2 °F 72.0 °F 29.67 in NNE 7.0 mph 16.0 mph 96 % 0.01 in
08:06 73.2 °F 72.3 °F 29.68 in ENE 8.0 mph 14.0 mph 97 % 0.02 in
08:11 72.9 °F 72.0 °F 29.67 in North 5.0 mph 14.0 mph 97 % 0.03 in
08:16 72.7 °F 71.8 °F 29.68 in NW 7.0 mph 15.0 mph 97 % 0.04 in
08:21 72.7 °F 71.8 °F 29.68 in NW 3.0 mph 17.0 mph 97 % 0.04 in
08:26 72.3 °F 71.4 °F 29.68 in NNE 6.0 mph 17.0 mph 97 % 0.05 in
08:31 72.1 °F 71.2 °F 29.68 in ENE 9.0 mph 17.0 mph 97 % 0.07 in
08:36 72.0 °F 71.1 °F 29.68 in WSW 7.0 mph 19.0 mph 97 % 0.08 in
08:41 71.8 °F 70.9 °F 29.68 in NNW 6.0 mph 19.0 mph 97 % 0.09 in
08:46 71.8 °F 70.9 °F 29.68 in WNW 7.0 mph 19.0 mph 97 % 0.09 in
08:52 71.4 °F 70.5 °F 29.68 in NW 2.0 mph 18.0 mph 97 % 0.09 in
08:57 71.4 °F 70.5 °F 29.68 in NE 2.0 mph 18.0 mph 97 % 0.09 in
09:02 71.2 °F 70.3 °F 29.68 in NE 3.0 mph 18.0 mph 97 % 0.10 in
09:07 71.2 °F 70.3 °F 29.69 in NW 3.0 mph 18.0 mph 97 % 0.09 in
09:12 71.2 °F 70.3 °F 29.68 in NNE 11.0 mph 20.0 mph 97 % 0.08 in
09:17 71.2 °F 70.7 °F 29.68 in WNW 4.0 mph 20.0 mph 98 % 0.08 in
09:22 71.1 °F 70.5 °F 29.69 in WNW 2.0 mph 20.0 mph 98 % 0.10 in
09:27 71.1 °F 70.5 °F 29.69 in NE 9.0 mph 14.0 mph 98 % 0.09 in
09:32 71.1 °F 70.5 °F 29.69 in WNW 4.0 mph 16.0 mph 98 % 0.07 in
09:37 71.1 °F 70.5 °F 29.70 in ENE 2.0 mph 16.0 mph 98 % 0.06 in
09:42 71.1 °F 70.5 °F 29.70 in NW 5.0 mph 16.0 mph 98 % 0.07 in
09:47 71.1 °F 70.5 °F 29.69 in NNW 7.0 mph 16.0 mph 98 % 0.09 in
09:50 71.1 °F 70.7 °F 29.70 in WNW 3.0 mph 16.0 mph 99 % 0.09 in
09:55 71.1 °F 70.7 °F 29.70 in NNW 3.0 mph 16.0 mph 99 % 0.09 in
10:00 71.1 °F 70.7 °F 29.70 in SW 3.0 mph 17.0 mph 99 % 0.08 in
10:05 71.2 °F 70.9 °F 29.70 in NNE 7.0 mph 17.0 mph 99 % 0.10 in
10:10 71.2 °F 70.9 °F 29.70 in South 2.0 mph 17.0 mph 99 % 0.11 in
10:15 71.2 °F 70.9 °F 29.70 in NW 2.0 mph 15.0 mph 99 % 0.12 in
10:20 71.2 °F 70.9 °F 29.70 in South 2.0 mph 15.0 mph 99 % 0.13 in
10:25 71.2 °F 70.9 °F 29.70 in WNW 5.0 mph 15.0 mph 99 % 0.14 in
10:30 71.2 °F 70.9 °F 29.71 in NW 4.0 mph 15.0 mph 99 % 0.14 in
10:35 71.2 °F 70.9 °F 29.71 in North 5.0 mph 15.0 mph 99 % 0.15 in
10:40 71.2 °F 70.9 °F 29.71 in NNW 10.0 mph 14.0 mph 99 % 0.18 in
10:45 71.2 °F 70.9 °F 29.71 in North 4.0 mph 14.0 mph 99 % 0.21 in
10:50 71.1 °F 70.7 °F 29.71 in NW 16.0 mph 16.0 mph 99 % 0.31 in
10:55 71.1 °F 70.7 °F 29.70 in NW 4.0 mph 16.0 mph 99 % 0.36 in
11:00 71.1 °F 71.1 °F 29.70 in WNW 4.0 mph 17.0 mph 100 % 0.37 in
11:05 71.1 °F 71.1 °F 29.71 in ENE 4.0 mph 19.0 mph 100 % 0.36 in
11:10 70.9 °F 70.9 °F 29.72 in NW 13.0 mph 19.0 mph 100 % 0.38 in
11:15 70.9 °F 70.9 °F 29.72 in NNE 11.0 mph 19.0 mph 100 % 0.42 in
11:20 70.9 °F 70.9 °F 29.72 in NNW 5.0 mph 21.0 mph 100 % 0.44 in
11:25 70.9 °F 70.9 °F 29.72 in NW 6.0 mph 21.0 mph 100 % 0.47 in
11:30 70.9 °F 70.9 °F 29.72 in NNW 6.0 mph 21.0 mph 100 % 0.51 in
11:35 70.7 °F 70.7 °F 29.72 in NNW 11.0 mph 21.0 mph 100 % 0.54 in
11:40 70.7 °F 70.7 °F 29.72 in NNW 5.0 mph 19.0 mph 100 % 0.52 in
11:45 70.5 °F 70.5 °F 29.72 in NW 7.0 mph 19.0 mph 100 % 0.48 in
11:50 70.5 °F 70.5 °F 29.72 in North 6.0 mph 19.0 mph 100 % 0.42 in
11:55 70.3 °F 70.3 °F 29.72 in NNW 6.0 mph 17.0 mph 100 % 0.41 in
12:00 70.2 °F 70.2 °F 29.72 in NNW 6.0 mph 19.0 mph 100 % 0.42 in
12:05 70.2 °F 70.2 °F 29.72 in NW 9.0 mph 19.0 mph 100 % 0.43 in
12:10 70.0 °F 70.0 °F 29.71 in WNW 7.0 mph 19.0 mph 100 % 0.42 in
12:15 69.8 °F 69.8 °F 29.71 in North 6.0 mph 16.0 mph 100 % 0.38 in
12:20 69.6 °F 69.6 °F 29.71 in NNW 3.0 mph 16.0 mph 100 % 0.34 in
12:25 69.6 °F 69.6 °F 29.71 in North 11.0 mph 16.0 mph 100 % 0.31 in
12:30 69.6 °F 69.6 °F 29.71 in NNE 1.0 mph 22.0 mph 100 % 0.27 in
12:35 69.4 °F 69.4 °F 29.71 in NNW 14.0 mph 22.0 mph 100 % 0.25 in
12:40 69.3 °F 69.3 °F 29.71 in North 8.0 mph 22.0 mph 100 % 0.25 in
12:45 69.3 °F 69.3 °F 29.72 in East 4.0 mph 18.0 mph 100 % 0.25 in
12:50 69.3 °F 69.3 °F 29.70 in North 6.0 mph 18.0 mph 100 % 0.22 in
12:55 69.3 °F 69.3 °F 29.71 in WNW 6.0 mph 18.0 mph 100 % 0.18 in
13:00 69.3 °F 69.3 °F 29.71 in NNW 10.0 mph 18.0 mph 100 % 0.16 in
13:06 69.3 °F 69.3 °F 29.71 in North 4.0 mph 18.0 mph 100 % 0.14 in
13:11 69.4 °F 69.4 °F 29.71 in NW 8.0 mph 18.0 mph 100 % 0.14 in
13:16 69.3 °F 69.3 °F 29.71 in WNW 6.0 mph 16.0 mph 100 % 0.13 in
13:21 69.4 °F 69.4 °F 29.70 in North 6.0 mph 16.0 mph 100 % 0.13 in
13:26 69.4 °F 69.4 °F 29.70 in NNE 6.0 mph 17.0 mph 100 % 0.13 in
13:27 69.4 °F 69.4 °F 29.70 in NNW 7.0 mph 17.0 mph 100 % 0.13 in
13:32 69.4 °F 69.4 °F 29.70 in NNW 14.0 mph 17.0 mph 100 % 0.13 in
13:37 69.4 °F 69.4 °F 29.70 in NW 5.0 mph 17.0 mph 100 % 0.13 in
13:42 69.4 °F 69.4 °F 29.70 in NNW 4.0 mph 17.0 mph 100 % 0.11 in
13:47 69.4 °F 69.4 °F 29.70 in NE 6.0 mph 17.0 mph 100 % 0.10 in
13:52 69.4 °F 69.4 °F 29.70 in NNW 9.0 mph 17.0 mph 100 % 0.09 in
13:57 69.4 °F 69.4 °F 29.70 in ENE 4.0 mph 17.0 mph 100 % 0.11 in
14:02 69.4 °F 69.4 °F 29.69 in NW 9.0 mph 17.0 mph 100 % 0.11 in
14:07 69.4 °F 69.4 °F 29.68 in NNE 3.0 mph 17.0 mph 100 % 0.12 in
14:12 69.4 °F 69.4 °F 29.69 in NNW 6.0 mph 20.0 mph 100 % 0.12 in
14:17 69.4 °F 69.4 °F 29.69 in North 4.0 mph 20.0 mph 100 % 0.11 in
14:18 69.4 °F 69.4 °F 29.69 in NNW 9.0 mph 20.0 mph 100 % 0.11 in
14:23 69.4 °F 69.4 °F 29.69 in North 13.0 mph 20.0 mph 100 % 0.11 in
14:28 69.6 °F 69.6 °F 29.69 in NW 6.0 mph 18.0 mph 100 % 0.11 in
14:33 69.6 °F 69.6 °F 29.69 in NW 11.0 mph 18.0 mph 100 % 0.10 in
14:38 69.6 °F 69.6 °F 29.69 in NE 10.0 mph 17.0 mph 100 % 0.10 in
14:43 69.6 °F 69.6 °F 29.69 in North 5.0 mph 17.0 mph 100 % 0.11 in
14:48 69.6 °F 69.6 °F 29.69 in NE 12.0 mph 23.0 mph 100 % 0.11 in
14:58 69.6 °F 69.6 °F 29.69 in North 8.0 mph 23.0 mph 100 % 0.12 in
15:03 69.6 °F 69.6 °F 29.69 in NW 2.0 mph 17.0 mph 100 % 0.12 in
15:08 69.6 °F 69.6 °F 29.69 in North 11.0 mph 17.0 mph 100 % 0.12 in
15:13 69.8 °F 69.8 °F 29.69 in East 2.0 mph 17.0 mph 100 % 0.13 in
15:18 69.6 °F 69.6 °F 29.69 in WSW 4.0 mph 17.0 mph 100 % 0.15 in
15:23 69.8 °F 69.8 °F 29.69 in East 9.0 mph 17.0 mph 100 % 0.15 in
15:28 69.8 °F 69.8 °F 29.69 in NW 7.0 mph 16.0 mph 100 % 0.16 in
15:31 69.8 °F 69.8 °F 29.69 in NE 6.0 mph 16.0 mph 100 % 0.18 in
15:36 69.8 °F 69.8 °F 29.69 in SW 7.0 mph 16.0 mph 100 % 0.20 in
15:41 70.0 °F 70.0 °F 29.69 in NW 4.0 mph 16.0 mph 100 % 0.21 in
15:46 70.0 °F 70.0 °F 29.68 in NNW 4.0 mph 16.0 mph 100 % 0.24 in
15:51 70.0 °F 70.0 °F 29.68 in WNW 3.0 mph 16.0 mph 100 % 0.27 in
15:56 70.0 °F 70.0 °F 29.68 in NNW 8.0 mph 15.0 mph 100 % 0.28 in
16:01 70.0 °F 70.0 °F 29.68 in WNW 4.0 mph 15.0 mph 100 % 0.30 in
16:06 70.2 °F 70.2 °F 29.68 in NNW 4.0 mph 16.0 mph 100 % 0.32 in
16:11 70.0 °F 70.0 °F 29.68 in NW 10.0 mph 16.0 mph 100 % 0.33 in
16:16 70.0 °F 70.0 °F 29.68 in WNW 6.0 mph 20.0 mph 100 % 0.34 in
16:21 70.0 °F 70.0 °F 29.68 in NNW 13.0 mph 20.0 mph 100 % 0.36 in
16:26 70.0 °F 70.0 °F 29.68 in NNW 8.0 mph 20.0 mph 100 % 0.37 in
16:31 70.0 °F 70.0 °F 29.68 in NW 6.0 mph 17.0 mph 100 % 0.38 in
16:36 70.0 °F 70.0 °F 29.68 in NNW 6.0 mph 16.0 mph 100 % 0.42 in
16:41 70.0 °F 70.0 °F 29.68 in NNW 4.0 mph 16.0 mph 100 % 0.44 in
16:42 70.0 °F 70.0 °F 29.68 in NW 4.0 mph 16.0 mph 100 % 0.44 in
16:47 70.2 °F 70.2 °F 29.68 in NW 4.0 mph 16.0 mph 100 % 0.42 in
16:52 70.2 °F 70.2 °F 29.69 in West 3.0 mph 16.0 mph 100 % 0.42 in
16:57 70.2 °F 70.2 °F 29.69 in NNE 5.0 mph 16.0 mph 100 % 0.42 in
17:02 70.2 °F 70.2 °F 29.69 in NW 3.0 mph 16.0 mph 100 % 0.42 in
17:07 70.2 °F 70.2 °F 29.69 in NNW 9.0 mph 16.0 mph 100 % 0.42 in
17:12 70.2 °F 70.2 °F 29.69 in North 4.0 mph 15.0 mph 100 % 0.41 in
17:17 70.3 °F 70.3 °F 29.69 in SW 2.0 mph 15.0 mph 100 % 0.42 in
17:22 70.3 °F 70.3 °F 29.69 in NNW 13.0 mph 15.0 mph 100 % 0.42 in
17:27 70.3 °F 70.3 °F 29.70 in NNE 6.0 mph 13.0 mph 100 % 0.42 in
17:32 70.5 °F 70.5 °F 29.70 in WNW 5.0 mph 13.0 mph 100 % 0.40 in
17:37 70.5 °F 70.5 °F 29.70 in NNW 3.0 mph 13.0 mph 100 % 0.35 in
17:42 70.5 °F 70.5 °F 29.70 in WNW 7.0 mph 16.0 mph 100 % 0.34 in
17:47 70.5 °F 70.5 °F 29.70 in NNW 10.0 mph 16.0 mph 100 % 0.34 in
17:52 70.7 °F 70.7 °F 29.69 in ENE 14.0 mph 17.0 mph 100 % 0.32 in
17:57 70.7 °F 70.7 °F 29.70 in North 5.0 mph 18.0 mph 100 % 0.31 in
18:02 70.7 °F 70.7 °F 29.70 in North 8.0 mph 18.0 mph 100 % 0.30 in
18:07 70.9 °F 70.9 °F 29.70 in SE 4.0 mph 18.0 mph 100 % 0.29 in
18:12 70.7 °F 70.7 °F 29.70 in NNW 8.0 mph 15.0 mph 100 % 0.28 in
18:17 70.5 °F 70.5 °F 29.70 in NNE 9.0 mph 18.0 mph 100 % 0.25 in
18:22 70.5 °F 70.5 °F 29.70 in NNW 4.0 mph 18.0 mph 100 % 0.24 in
18:27 70.5 °F 70.5 °F 29.70 in North 7.0 mph 18.0 mph 100 % 0.23 in
18:32 70.5 °F 70.5 °F 29.70 in West 5.0 mph 17.0 mph 100 % 0.23 in
18:37 70.5 °F 70.5 °F 29.70 in NW 8.0 mph 16.0 mph 100 % 0.23 in
18:42 70.3 °F 70.3 °F 29.70 in WNW 4.0 mph 16.0 mph 100 % 0.24 in
18:47 70.3 °F 70.3 °F 29.71 in NW 4.0 mph 15.0 mph 100 % 0.27 in
18:52 70.3 °F 70.3 °F 29.71 in NW 5.0 mph 14.0 mph 100 % 0.27 in
18:57 70.3 °F 70.3 °F 29.71 in NNW 6.0 mph 21.0 mph 100 % 0.26 in
19:02 70.3 °F 70.3 °F 29.71 in NW 7.0 mph 21.0 mph 100 % 0.24 in
19:07 70.3 °F 70.3 °F 29.71 in NW 4.0 mph 21.0 mph 100 % 0.24 in
19:12 70.3 °F 70.3 °F 29.71 in NW 5.0 mph 18.0 mph 100 % 0.24 in
19:17 70.3 °F 70.3 °F 29.71 in NW 2.0 mph 18.0 mph 100 % 0.24 in
19:22 70.3 °F 70.3 °F 29.71 in NW 4.0 mph 17.0 mph 100 % 0.24 in
19:27 70.3 °F 70.3 °F 29.71 in NW 6.0 mph 12.0 mph 100 % 0.23 in
19:32 70.3 °F 70.3 °F 29.71 in WNW 7.0 mph 13.0 mph 100 % 0.22 in
19:37 70.3 °F 70.3 °F 29.71 in NW 4.0 mph 13.0 mph 100 % 0.20 in
19:42 70.3 °F 70.3 °F 29.71 in NW 1.0 mph 13.0 mph 100 % 0.16 in
19:47 70.3 °F 70.3 °F 29.71 in NNW 4.0 mph 13.0 mph 100 % 0.12 in
19:52 70.3 °F 70.3 °F 29.71 in NW 7.0 mph 13.0 mph 100 % 0.10 in
19:57 70.5 °F 70.5 °F 29.71 in NNW 5.0 mph 13.0 mph 100 % 0.10 in
20:02 70.5 °F 70.5 °F 29.71 in NNW 7.0 mph 11.0 mph 100 % 0.10 in
20:07 70.5 °F 70.5 °F 29.72 in WNW 4.0 mph 15.0 mph 100 % 0.11 in
20:12 70.5 °F 70.5 °F 29.71 in WNW 6.0 mph 15.0 mph 100 % 0.11 in
20:17 70.5 °F 70.5 °F 29.72 in West 5.0 mph 15.0 mph 100 % 0.10 in
20:22 70.5 °F 70.5 °F 29.73 in NW 5.0 mph 12.0 mph 100 % 0.09 in
20:27 70.7 °F 70.7 °F 29.73 in NE 7.0 mph 12.0 mph 100 % 0.09 in
20:32 70.7 °F 70.7 °F 29.73 in NNW 7.0 mph 13.0 mph 100 % 0.09 in
20:37 70.7 °F 70.7 °F 29.73 in North 3.0 mph 13.0 mph 100 % 0.09 in
20:40 70.7 °F 70.7 °F 29.73 in WNW 2.0 mph 13.0 mph 100 % 0.10 in
20:45 70.9 °F 70.9 °F 29.73 in NNW 2.0 mph 12.0 mph 100 % 0.09 in
20:50 70.9 °F 70.9 °F 29.73 in NNW 4.0 mph 12.0 mph 100 % 0.10 in
20:55 70.9 °F 70.9 °F 29.73 in NNW 3.0 mph 12.0 mph 100 % 0.10 in
21:00 70.9 °F 70.9 °F 29.72 in WNW 5.0 mph 17.0 mph 100 % 0.11 in
21:05 70.9 °F 70.9 °F 29.72 in NW 4.0 mph 17.0 mph 100 % 0.11 in
21:10 70.9 °F 70.9 °F 29.72 in NNW 2.0 mph 17.0 mph 100 % 0.12 in
21:15 70.9 °F 70.9 °F 29.72 in NW 4.0 mph 15.0 mph 100 % 0.12 in
21:20 70.9 °F 70.9 °F 29.73 in NNE 5.0 mph 14.0 mph 100 % 0.14 in
21:25 70.9 °F 70.9 °F 29.72 in NNW 4.0 mph 13.0 mph 100 % 0.14 in
21:30 70.9 °F 70.9 °F 29.72 in NNE 1.0 mph 14.0 mph 100 % 0.14 in
21:35 71.1 °F 71.1 °F 29.72 in NNW 3.0 mph 14.0 mph 100 % 0.14 in
21:40 71.1 °F 71.1 °F 29.73 in NW 3.0 mph 14.0 mph 100 % 0.14 in
21:45 71.1 °F 71.1 °F 29.73 in NNW 9.0 mph 11.0 mph 100 % 0.14 in
21:50 71.1 °F 71.1 °F 29.73 in NNE 9.0 mph 19.0 mph 100 % 0.14 in
21:55 71.1 °F 71.1 °F 29.73 in WNW 6.0 mph 19.0 mph 100 % 0.13 in
22:00 71.1 °F 71.1 °F 29.73 in NW 3.0 mph 19.0 mph 100 % 0.11 in
22:05 71.1 °F 71.1 °F 29.73 in NNW 4.0 mph 13.0 mph 100 % 0.10 in
22:11 71.1 °F 71.1 °F 29.73 in NNW 3.0 mph 13.0 mph 100 % 0.08 in
22:16 71.1 °F 71.1 °F 29.73 in WNW 6.0 mph 13.0 mph 100 % 0.07 in
22:21 71.1 °F 71.1 °F 29.73 in North 6.0 mph 13.0 mph 100 % 0.05 in
22:22 71.1 °F 71.1 °F 29.73 in NNE 9.0 mph 13.0 mph 100 % 0.05 in
22:24 71.1 °F 71.1 °F 29.73 in WSW 3.0 mph 13.0 mph 100 % 0.05 in
22:26 71.1 °F 71.1 °F 29.73 in NW 8.0 mph 13.0 mph 100 % 0.04 in
22:27 71.1 °F 71.1 °F 29.73 in NNE 3.0 mph 13.0 mph 100 % 0.04 in
22:32 71.1 °F 71.1 °F 29.73 in WNW 3.0 mph 13.0 mph 100 % 0.03 in
22:35 71.1 °F 71.1 °F 29.73 in North 7.0 mph 13.0 mph 100 % 0.03 in
22:42 71.1 °F 71.1 °F 29.73 in WNW 3.0 mph 13.0 mph 100 % 0.03 in
22:47 71.1 °F 71.1 °F 29.73 in WSW 7.0 mph 13.0 mph 100 % 0.03 in
22:52 71.1 °F 71.1 °F 29.73 in NNW 2.0 mph 15.0 mph 100 % 0.02 in
22:57 71.1 °F 71.1 °F 29.73 in NW 6.0 mph 15.0 mph 100 % 0.02 in
23:02 71.1 °F 71.1 °F 29.73 in WNW 3.0 mph 15.0 mph 100 % 0.03 in
23:07 71.1 °F 71.1 °F 29.73 in NNW 5.0 mph 14.0 mph 100 % 0.02 in
23:12 71.1 °F 71.1 °F 29.73 in NNE 8.0 mph 12.0 mph 100 % 0.03 in
23:17 71.1 °F 71.1 °F 29.73 in North 2.0 mph 12.0 mph 100 % 0.04 in
23:22 71.1 °F 71.1 °F 29.73 in WNW 4.0 mph 13.0 mph 100 % 0.05 in
23:27 71.1 °F 71.1 °F 29.73 in NNW 4.0 mph 13.0 mph 100 % 0.06 in
23:32 71.1 °F 71.1 °F 29.73 in NNW 5.0 mph 13.0 mph 100 % 0.06 in
23:38 71.1 °F 71.1 °F 29.73 in NW 4.0 mph 18.0 mph 100 % 0.07 in
23:43 71.1 °F 71.1 °F 29.73 in North 4.0 mph 18.0 mph 100 % 0.06 in
23:48 71.1 °F 71.1 °F 29.73 in NW 3.0 mph 18.0 mph 100 % 0.07 in
23:58 70.9 °F 70.9 °F 29.73 in NW 2.0 mph 13.0 mph 100 % 0.09 in
Spring, Texas: Villages of Bridgestone
Compliments of Weather Underground - 2.75 mb

Script developed by  Jim McMurry - jmcmurry@mwt.net Adapted for the template by  Wim van der Kuil - Leuven-Template.eu

You find our weather info also at:

UK Metoffice

WeatherCloud

Weather Underground

Mid-South Weather Network

AWEKAS

Citizen Weather Observer Program (CWOP)

HAMweather, WeatherForYou, PWS Weather

Equipment we use:

Weather-station
Davis Vantage Vue

Weather-program
Meteohub

Weather-server
Debian 7.9 x86 (Guest)

Provider
DreamHost

Davis Vantage Vue

Meteohub

Debian 7.9 x86 (Guest)

DreamHost